createdAt,value
2019-05-12T00:00:31.375Z,10.60
2019-05-12T00:03:01.180Z,10.60
2019-05-12T00:05:30.930Z,10.60
2019-05-12T00:08:00.763Z,10.60
2019-05-12T00:10:30.532Z,10.50
2019-05-12T00:13:00.320Z,10.50
2019-05-12T00:15:30.107Z,10.50
2019-05-12T00:17:59.961Z,10.30
2019-05-12T00:20:29.718Z,10.30
2019-05-12T00:23:02.526Z,10.30
2019-05-12T00:25:32.293Z,10.30
2019-05-12T00:28:02.090Z,10.30
2019-05-12T00:30:44.716Z,10.30
2019-05-12T00:33:14.505Z,10.40
2019-05-12T00:35:44.309Z,10.40
2019-05-12T00:38:14.109Z,10.40
2019-05-12T00:40:43.839Z,10.40
2019-05-12T00:43:13.647Z,10.50
2019-05-12T00:45:43.387Z,10.50
2019-05-12T00:48:13.210Z,10.50
2019-05-12T00:50:42.996Z,10.50
2019-05-12T00:53:12.743Z,10.50
2019-05-12T00:55:42.558Z,10.50
2019-05-12T00:58:12.345Z,10.60
2019-05-12T01:00:42.222Z,10.50
2019-05-12T01:03:12.028Z,10.50
2019-05-12T01:05:41.808Z,10.40
2019-05-12T01:08:11.583Z,10.40
2019-05-12T01:10:41.364Z,10.40
2019-05-12T01:13:11.105Z,10.30
2019-05-12T01:15:40.957Z,10.30
2019-05-12T01:18:10.759Z,10.30
2019-05-12T01:20:40.555Z,10.30
2019-05-12T01:23:10.340Z,10.30
2019-05-12T01:25:40.088Z,10.20
2019-05-12T01:28:10.157Z,10.20
2019-05-12T01:30:39.969Z,10.20
2019-05-12T01:33:09.740Z,10.20
2019-05-12T01:35:39.543Z,10.20
2019-05-12T01:38:09.548Z,10.20
2019-05-12T01:40:39.864Z,10.20
2019-05-12T01:43:09.849Z,10.20
2019-05-12T01:45:39.610Z,10.20
2019-05-12T01:48:09.566Z,10.10
2019-05-12T01:50:39.431Z,10.00
2019-05-12T01:53:09.188Z,10.10
2019-05-12T01:55:39.286Z,10.00
2019-05-12T01:58:09.365Z,10.00
2019-05-12T02:00:39.442Z,9.90
2019-05-12T02:03:09.748Z,9.90
2019-05-12T02:05:42.534Z,9.90
2019-05-12T02:08:18.499Z,9.80
2019-05-12T02:10:49.717Z,9.80
2019-05-12T02:13:19.510Z,9.70
2019-05-12T02:15:49.322Z,9.70
2019-05-12T02:18:19.160Z,9.60
2019-05-12T02:20:48.899Z,9.60
2019-05-12T02:23:18.707Z,9.60
2019-05-12T02:25:48.456Z,9.50
2019-05-12T02:28:18.234Z,9.50
2019-05-12T02:30:50.263Z,9.40
2019-05-12T02:33:19.654Z,9.40
2019-05-12T02:35:49.443Z,9.40
2019-05-12T02:38:19.250Z,9.40
2019-05-12T02:40:48.993Z,9.40
2019-05-12T02:43:18.806Z,9.40
2019-05-12T02:45:48.560Z,9.30
2019-05-12T02:48:18.343Z,9.20
2019-05-12T02:50:48.336Z,9.20
2019-05-12T02:53:18.082Z,9.10
2019-05-12T02:55:49.105Z,9.10
2019-05-12T02:58:25.203Z,9.00
2019-05-12T03:00:55.363Z,9.00
2019-05-12T03:03:27.139Z,9.00
2019-05-12T03:05:59.162Z,9.00
2019-05-12T03:08:34.563Z,9.00
2019-05-12T03:11:06.117Z,8.90
2019-05-12T03:13:34.854Z,8.90
2019-05-12T03:16:05.202Z,8.80
2019-05-12T03:18:35.139Z,8.90
2019-05-12T03:21:05.809Z,8.80
2019-05-12T03:23:35.901Z,8.80
2019-05-12T03:26:05.694Z,8.80
2019-05-12T03:28:35.814Z,8.70
2019-05-12T03:31:07.911Z,8.70
2019-05-12T03:33:43.278Z,8.70
2019-05-12T03:36:09.842Z,8.70
2019-05-12T03:38:38.927Z,8.60
2019-05-12T03:41:08.719Z,8.60
2019-05-12T03:43:38.501Z,8.50
2019-05-12T03:46:08.306Z,8.50
2019-05-12T03:48:38.071Z,8.40
2019-05-12T03:51:07.879Z,8.40
2019-05-12T03:53:37.636Z,8.30
2019-05-12T03:56:07.443Z,8.30
2019-05-12T03:58:37.229Z,8.30
2019-05-12T04:01:06.983Z,8.30
2019-05-12T04:03:36.796Z,8.30
2019-05-12T04:06:06.550Z,8.30
2019-05-12T04:08:36.372Z,8.30
2019-05-12T04:11:06.169Z,8.20
2019-05-12T04:13:35.954Z,8.30
2019-05-12T04:16:05.738Z,8.30
2019-05-12T04:18:35.552Z,8.20
2019-05-12T04:21:05.768Z,8.30
2019-05-12T04:23:35.758Z,8.30
2019-05-12T04:26:11.670Z,8.40
2019-05-12T04:28:35.834Z,8.40
2019-05-12T04:31:05.702Z,8.30
2019-05-12T04:33:35.668Z,8.30
2019-05-12T04:36:05.815Z,8.40
2019-05-12T04:38:35.769Z,8.30
2019-05-12T04:41:06.161Z,8.30
2019-05-12T04:43:36.039Z,8.30
2019-05-12T04:46:05.905Z,8.30
2019-05-12T04:48:36.121Z,8.40
2019-05-12T04:51:05.992Z,8.40
2019-05-12T04:53:35.796Z,8.40
2019-05-12T04:56:15.191Z,8.50
2019-05-12T04:58:35.895Z,8.50
2019-05-12T05:01:06.599Z,8.50
2019-05-12T05:03:36.476Z,8.50
2019-05-12T05:06:06.423Z,8.50
2019-05-12T05:08:36.178Z,8.60
2019-05-12T05:11:05.969Z,8.60
2019-05-12T05:13:39.524Z,8.60
2019-05-12T05:16:06.064Z,8.70
2019-05-12T05:18:35.920Z,8.70
2019-05-12T05:21:05.826Z,8.80
2019-05-12T05:23:35.576Z,8.80
2019-05-12T05:26:05.363Z,8.80
2019-05-12T05:28:35.156Z,8.80
2019-05-12T05:31:04.931Z,8.80
2019-05-12T05:33:34.764Z,8.90
2019-05-12T05:36:08.924Z,8.90
2019-05-12T05:38:37.235Z,9.00
2019-05-12T05:41:10.417Z,9.00
2019-05-12T05:43:38.466Z,9.10
2019-05-12T05:46:08.394Z,9.20
2019-05-12T05:48:38.155Z,9.20
2019-05-12T05:51:09.139Z,9.20
2019-05-12T05:53:39.173Z,9.30
2019-05-12T05:56:08.914Z,9.30
2019-05-12T05:58:40.235Z,9.40
2019-05-12T06:01:10.143Z,9.50
2019-05-12T06:03:39.904Z,9.50
2019-05-12T06:06:12.386Z,9.60
2019-05-12T06:08:40.007Z,9.60
2019-05-12T06:11:14.698Z,9.70
2019-05-12T06:13:41.256Z,9.80
2019-05-12T06:16:19.863Z,9.80
2019-05-12T06:18:43.978Z,9.90
2019-05-12T06:21:13.957Z,10.00
2019-05-12T06:23:43.750Z,10.10
2019-05-12T06:26:14.159Z,10.20
2019-05-12T06:28:44.208Z,10.30
2019-05-12T06:31:18.916Z,10.60
2019-05-12T06:33:45.576Z,10.70
2019-05-12T06:36:22.290Z,10.70
2019-05-12T06:38:46.799Z,10.90
2019-05-12T06:41:20.447Z,11.00
2019-05-12T06:43:48.253Z,11.00
2019-05-12T06:46:21.175Z,10.90
2019-05-12T06:48:49.519Z,11.00
2019-05-12T06:51:23.694Z,11.00
2019-05-12T06:53:50.727Z,11.00
2019-05-12T06:56:20.538Z,11.00
2019-05-12T06:58:50.329Z,11.10
2019-05-12T07:01:20.315Z,11.10
2019-05-12T07:03:50.809Z,11.20
2019-05-12T07:06:20.629Z,11.20
2019-05-12T07:09:02.277Z,11.20
2019-05-12T07:11:20.818Z,11.20
2019-05-12T07:14:02.205Z,11.40
2019-05-12T07:16:29.790Z,11.40
2019-05-12T07:18:57.160Z,11.50
2019-05-12T07:21:27.494Z,11.50
2019-05-12T07:24:00.473Z,11.50
2019-05-12T07:26:31.143Z,11.40
2019-05-12T07:29:04.449Z,11.40
2019-05-12T07:31:34.309Z,11.40
2019-05-12T07:34:07.883Z,11.50
2019-05-12T07:36:39.216Z,11.50
2019-05-12T07:39:13.444Z,11.60
2019-05-12T07:41:51.010Z,11.60
2019-05-12T07:44:23.013Z,11.60
2019-05-12T07:46:54.077Z,11.70
2019-05-12T07:49:34.253Z,11.70
2019-05-12T07:51:57.413Z,11.80
2019-05-12T07:54:29.341Z,12.00
2019-05-12T07:57:03.809Z,12.20
2019-05-12T07:59:39.573Z,12.20
2019-05-12T08:02:05.349Z,12.20
2019-05-12T08:04:39.780Z,12.20
2019-05-12T08:07:07.565Z,12.30
2019-05-12T08:09:39.418Z,12.40
2019-05-12T08:12:19.107Z,12.50
2019-05-12T08:14:43.956Z,12.50
2019-05-12T08:17:19.228Z,12.60
2019-05-12T08:19:48.630Z,12.70
2019-05-12T08:22:25.003Z,12.70
2019-05-12T08:24:54.107Z,12.80
2019-05-12T08:27:27.221Z,13.00
2019-05-12T08:30:01.163Z,13.20
2019-05-12T08:32:33.883Z,13.40
2019-05-12T08:35:05.790Z,13.50
2019-05-12T08:37:37.837Z,13.50
2019-05-12T08:40:10.064Z,13.60
2019-05-12T08:42:43.704Z,13.70
2019-05-12T08:45:25.064Z,13.70
2019-05-12T08:47:49.847Z,13.60
2019-05-12T08:50:23.140Z,13.70
2019-05-12T08:52:53.883Z,13.90
2019-05-12T08:55:31.172Z,14.10
2019-05-12T08:57:55.962Z,14.20
2019-05-12T09:00:48.780Z,14.30
2019-05-12T09:03:20.485Z,14.30
2019-05-12T09:05:50.836Z,14.40
2019-05-12T09:08:24.172Z,14.40
2019-05-12T09:10:55.896Z,14.40
2019-05-12T09:13:27.987Z,14.60
2019-05-12T09:16:00.008Z,14.70
2019-05-12T09:18:35.185Z,14.80
2019-05-12T09:21:05.830Z,14.90
2019-05-12T09:23:41.034Z,15.20
2019-05-12T09:26:13.548Z,15.30
2019-05-12T09:28:50.012Z,15.40
2019-05-12T09:31:24.194Z,15.50
2019-05-12T09:33:54.710Z,15.60
2019-05-12T09:36:26.749Z,15.70
2019-05-12T09:39:01.815Z,15.70
2019-05-12T09:41:36.017Z,15.70
2019-05-12T09:44:07.010Z,15.90
2019-05-12T09:46:38.453Z,16.10
2019-05-12T09:49:08.956Z,16.20
2019-05-12T09:51:42.799Z,16.20
2019-05-12T09:54:13.905Z,16.30
2019-05-12T09:56:44.233Z,16.40
2019-05-12T09:59:21.474Z,16.50
2019-05-12T10:01:46.194Z,16.50
2019-05-12T10:04:19.602Z,16.60
2019-05-12T10:06:49.201Z,16.80
2019-05-12T10:09:19.815Z,17.00
2019-05-12T10:11:53.833Z,17.30
2019-05-12T10:14:23.586Z,17.30
2019-05-12T10:16:53.732Z,17.30
2019-05-12T10:19:23.688Z,17.30
2019-05-12T10:21:59.304Z,17.50
2019-05-12T10:24:32.522Z,17.50
2019-05-12T10:27:00.370Z,17.50
2019-05-12T10:29:30.960Z,17.50
2019-05-12T10:32:04.008Z,17.60
2019-05-12T11:39:38.770Z,18.60
2019-05-12T11:42:04.899Z,18.50
2019-05-12T11:44:37.316Z,18.40
2019-05-12T11:47:16.946Z,18.50
2019-05-12T11:49:44.231Z,18.40
2019-05-12T11:52:19.274Z,18.50
2019-05-12T11:54:55.075Z,18.50
2019-05-12T11:57:30.273Z,18.60
2019-05-12T12:00:02.254Z,18.60
2019-05-12T12:02:35.025Z,18.60
2019-05-12T12:05:07.990Z,18.50
2019-05-12T12:07:50.612Z,18.50
2019-05-12T12:10:14.387Z,18.50
2019-05-12T12:12:49.427Z,18.40
2019-05-12T12:15:26.333Z,18.50
2019-05-12T12:17:55.658Z,18.50
2019-05-12T12:20:28.117Z,18.60
2019-05-12T12:23:05.745Z,18.60
2019-05-12T12:25:34.527Z,18.80
2019-05-12T12:28:08.490Z,18.80
2019-05-12T12:30:40.818Z,18.80
2019-05-12T12:33:14.363Z,18.70
2019-05-12T12:35:50.369Z,18.80
2019-05-12T12:38:20.395Z,19.00
2019-05-12T12:40:53.602Z,19.10
2019-05-12T12:43:25.829Z,19.10
2019-05-12T12:46:20.925Z,19.10
2019-05-12T12:48:49.490Z,19.00
2019-05-12T12:51:23.521Z,18.80
2019-05-12T12:53:55.048Z,18.60
2019-05-12T12:56:30.080Z,18.60
2019-05-12T12:59:09.631Z,18.60
2019-05-12T13:01:35.734Z,18.70
2019-05-12T13:04:06.519Z,18.80
2019-05-12T13:06:38.355Z,19.00
2019-05-12T13:09:18.252Z,19.00
2019-05-12T13:11:44.294Z,19.10
2019-05-12T13:14:14.059Z,19.10
2019-05-12T13:16:49.459Z,19.10
2019-05-12T13:19:19.052Z,19.10
2019-05-12T13:21:53.086Z,19.00
2019-05-12T13:24:24.769Z,19.00
2019-05-12T13:26:57.119Z,19.00
2019-05-12T13:29:34.515Z,19.10
2019-05-12T13:31:59.990Z,18.80
2019-05-12T13:34:34.749Z,18.80
2019-05-12T13:37:09.372Z,18.80
2019-05-12T13:39:38.056Z,19.10
2019-05-12T13:42:10.364Z,19.20
2019-05-12T13:44:43.617Z,19.20
2019-05-12T13:47:14.448Z,19.20
2019-05-12T13:49:47.501Z,19.10
2019-05-12T13:52:20.214Z,19.00
2019-05-12T13:54:50.150Z,18.90
2019-05-12T13:57:23.572Z,18.80
2019-05-12T14:00:06.468Z,18.70
2019-05-12T14:02:29.646Z,18.60
2019-05-12T14:05:07.144Z,18.50
2019-05-12T14:07:35.584Z,18.50
2019-05-12T14:10:08.535Z,18.50
2019-05-12T14:12:39.497Z,18.70
2019-05-12T14:15:14.226Z,18.80
2019-05-12T14:17:46.054Z,18.90
2019-05-12T14:20:20.152Z,19.00
2019-05-12T14:22:53.674Z,19.10
2019-05-12T14:25:30.338Z,19.10
2019-05-12T14:27:59.290Z,19.30
2019-05-12T14:30:33.666Z,19.40
2019-05-12T14:33:05.595Z,19.50
2019-05-12T14:35:41.178Z,19.60
2019-05-12T14:38:13.992Z,19.60
2019-05-12T14:40:45.322Z,19.60
2019-05-12T14:43:21.314Z,19.60
2019-05-12T14:45:51.334Z,19.50
2019-05-12T14:48:25.058Z,19.50
2019-05-12T14:50:58.711Z,19.60
2019-05-12T14:53:33.002Z,19.50
2019-05-12T14:56:04.153Z,19.40
2019-05-12T14:58:36.629Z,19.40
2019-05-12T15:01:08.693Z,19.30
2019-05-12T15:03:42.245Z,19.30
2019-05-12T15:06:14.336Z,19.20
2019-05-12T15:08:46.974Z,19.20
2019-05-12T15:11:19.270Z,19.30
2019-05-12T15:13:51.472Z,19.20
2019-05-12T15:16:23.854Z,19.10
2019-05-12T15:18:56.635Z,19.10
2019-05-12T15:21:31.271Z,19.00
2019-05-12T15:24:03.905Z,19.00
2019-05-12T15:26:36.420Z,18.90
2019-05-12T15:29:13.367Z,18.90
2019-05-12T15:31:53.172Z,18.90
2019-05-12T15:34:17.515Z,18.90
2019-05-12T15:36:53.886Z,18.80
2019-05-12T15:39:24.634Z,18.60
2019-05-12T15:41:58.725Z,18.50
2019-05-12T15:44:32.322Z,18.50
2019-05-12T15:47:04.599Z,18.50
2019-05-12T15:49:37.665Z,18.40
2019-05-12T15:52:10.061Z,18.50
2019-05-12T15:54:47.152Z,18.30
2019-05-12T15:57:16.369Z,18.00
2019-05-12T15:59:48.762Z,17.70
2019-05-12T16:02:23.536Z,17.50
2019-05-12T16:04:55.700Z,17.30
2019-05-12T16:07:34.555Z,17.10
2019-05-12T16:10:04.308Z,17.00
2019-05-12T16:12:36.830Z,16.90
2019-05-12T16:15:11.396Z,16.90
2019-05-12T16:17:44.087Z,17.00
2019-05-12T16:20:16.717Z,16.90
2019-05-12T16:22:48.957Z,17.00
2019-05-12T16:25:28.956Z,17.00
2019-05-12T16:27:55.006Z,17.00
2019-05-12T16:30:28.985Z,16.90
2019-05-12T16:33:03.420Z,16.90
2019-05-12T16:35:35.338Z,17.00
2019-05-12T16:38:17.325Z,17.20
2019-05-12T16:40:45.597Z,17.20
2019-05-12T16:43:16.679Z,17.10
2019-05-12T16:45:49.131Z,17.10
2019-05-12T16:48:30.360Z,17.10
2019-05-12T16:50:57.081Z,16.90
2019-05-12T16:53:31.538Z,16.80
2019-05-12T16:56:07.375Z,16.80
2019-05-12T16:58:39.698Z,16.80
2019-05-12T17:01:14.467Z,16.70
2019-05-12T17:03:48.180Z,16.70
2019-05-12T17:06:20.638Z,16.60
2019-05-12T17:08:54.343Z,16.50
2019-05-12T17:11:30.730Z,16.50
2019-05-12T17:14:04.065Z,16.40
2019-05-12T17:16:42.044Z,16.30
2019-05-12T17:19:10.744Z,16.20
2019-05-12T17:21:49.378Z,16.30
2019-05-12T17:24:19.282Z,16.10
2019-05-12T17:26:51.711Z,16.10
2019-05-12T17:29:24.388Z,16.10
2019-05-12T17:31:58.026Z,16.10
2019-05-12T17:34:30.610Z,16.10
2019-05-12T17:37:03.939Z,16.00
2019-05-12T17:39:39.209Z,16.00
2019-05-12T17:42:21.500Z,16.00
2019-05-12T17:44:48.581Z,16.00
2019-05-12T17:47:26.295Z,15.90
2019-05-12T17:50:00.412Z,15.90
2019-05-12T17:52:33.724Z,15.90
2019-05-12T17:55:10.572Z,15.80
2019-05-12T17:57:44.687Z,15.80
2019-05-12T18:00:18.654Z,15.80
2019-05-12T18:02:56.235Z,15.80
2019-05-12T18:05:25.702Z,15.70
2019-05-12T18:07:59.634Z,15.70
2019-05-12T18:10:32.585Z,15.60
2019-05-12T18:13:06.044Z,15.60
2019-05-12T18:15:39.177Z,15.50
2019-05-12T18:18:15.314Z,15.40
2019-05-12T18:20:47.186Z,15.30
2019-05-12T18:23:26.168Z,15.30
2019-05-12T18:26:03.014Z,15.30
2019-05-12T18:28:33.467Z,15.20
2019-05-12T18:31:09.011Z,15.20
2019-05-12T18:33:49.052Z,15.10
2019-05-12T18:36:16.183Z,15.00
2019-05-12T18:38:49.076Z,15.00
2019-05-12T18:41:24.303Z,14.90
2019-05-12T18:43:59.763Z,14.80
2019-05-12T18:46:38.672Z,14.70
2019-05-12T18:49:12.226Z,14.60
2019-05-12T18:51:43.803Z,14.60
2019-05-12T18:54:24.828Z,14.40
2019-05-12T18:57:04.150Z,14.40
2019-05-12T18:59:33.976Z,14.30
2019-05-12T19:02:23.526Z,14.20
2019-05-12T19:04:50.959Z,14.20
2019-05-12T19:07:38.955Z,14.10
2019-05-12T19:10:00.007Z,14.00
2019-05-12T19:12:35.501Z,14.00
2019-05-12T19:15:10.145Z,13.90
2019-05-12T19:17:47.293Z,13.80
2019-05-12T19:20:20.030Z,13.70
2019-05-12T19:22:59.671Z,13.70
2019-05-12T19:25:30.170Z,13.60
2019-05-12T19:28:06.941Z,13.50
2019-05-12T19:30:36.797Z,13.50
2019-05-12T19:33:13.618Z,13.40
2019-05-12T19:35:50.437Z,13.30
2019-05-12T19:38:25.542Z,13.30
2019-05-12T19:41:00.737Z,13.20
2019-05-12T19:43:34.011Z,13.20
2019-05-12T19:46:08.248Z,13.20
2019-05-12T19:48:49.975Z,13.20
2019-05-12T19:51:24.718Z,13.20
2019-05-12T19:53:54.268Z,13.20
2019-05-12T19:56:34.609Z,13.20
2019-05-12T19:59:04.203Z,13.10
2019-05-12T20:01:36.546Z,13.10
2019-05-12T20:04:09.000Z,13.00
2019-05-12T20:06:43.829Z,13.00
2019-05-12T20:09:16.621Z,13.00
2019-05-12T20:11:49.017Z,12.90
2019-05-12T20:14:22.000Z,13.00
2019-05-12T20:16:59.991Z,12.90
2019-05-12T20:19:34.146Z,12.80
2019-05-12T20:22:06.581Z,12.80
2019-05-12T20:24:39.059Z,12.70
2019-05-12T20:27:17.395Z,12.70
2019-05-12T20:29:47.404Z,12.70
2019-05-12T20:32:21.058Z,12.70
2019-05-12T20:34:55.361Z,12.60
2019-05-12T20:37:27.749Z,12.60
2019-05-12T20:40:05.091Z,12.50
2019-05-12T20:42:42.236Z,12.50
2019-05-12T20:45:13.620Z,12.50
2019-05-12T20:47:47.724Z,12.40
2019-05-12T20:50:24.228Z,12.40
2019-05-12T20:52:58.763Z,12.40
2019-05-12T20:55:30.166Z,12.40
2019-05-12T20:58:04.486Z,12.40
2019-05-12T21:00:38.763Z,12.30
2019-05-12T21:03:10.315Z,12.30
2019-05-12T21:05:43.415Z,12.30
2019-05-12T21:08:15.589Z,12.30
2019-05-12T21:10:47.987Z,12.30
2019-05-12T21:13:20.459Z,12.20
2019-05-12T21:15:54.239Z,12.20
2019-05-12T21:18:26.003Z,12.10
2019-05-12T21:20:58.184Z,12.10
2019-05-12T21:23:29.838Z,12.10
2019-05-12T21:26:00.341Z,12.10
2019-05-12T21:28:31.301Z,12.00
2019-05-12T21:31:03.690Z,12.00
2019-05-12T21:33:39.563Z,11.90
2019-05-12T21:36:06.191Z,11.90
2019-05-12T21:38:36.291Z,11.90
2019-05-12T21:41:07.877Z,11.80
2019-05-12T21:43:37.632Z,11.80
2019-05-12T21:46:12.269Z,11.70
2019-05-12T21:48:37.712Z,11.70
2019-05-12T21:51:14.791Z,11.70
2019-05-12T21:53:37.790Z,11.60
2019-05-12T21:56:07.565Z,11.70
2019-05-12T21:58:45.333Z,11.50
2019-05-12T22:01:10.706Z,11.50
2019-05-12T22:03:45.856Z,11.50
2019-05-12T22:06:19.185Z,11.50
2019-05-12T22:08:44.103Z,11.50
2019-05-12T22:11:13.627Z,11.40
2019-05-12T22:13:47.308Z,11.30
2019-05-12T22:16:14.249Z,11.30
2019-05-12T22:18:44.012Z,11.30
2019-05-12T22:21:13.857Z,11.20
2019-05-12T22:23:50.870Z,11.20
2019-05-12T22:26:13.894Z,11.10
2019-05-12T22:28:46.702Z,11.00
2019-05-12T22:31:13.983Z,11.00
2019-05-12T22:33:51.593Z,10.90
2019-05-12T22:36:24.890Z,10.90
2019-05-12T22:38:45.556Z,10.90
2019-05-12T22:41:15.366Z,10.80
2019-05-12T22:43:45.937Z,10.80
2019-05-12T22:46:16.528Z,10.80
2019-05-12T22:48:47.250Z,10.90
2019-05-12T22:51:23.507Z,10.80
2019-05-12T22:53:47.280Z,10.80
2019-05-12T22:56:18.104Z,10.80
2019-05-12T22:58:51.897Z,10.70
2019-05-12T23:01:18.428Z,10.80
2019-05-12T23:03:51.734Z,10.70
2019-05-12T23:06:23.797Z,10.70
2019-05-12T23:08:49.926Z,10.60
2019-05-12T23:11:25.419Z,10.60
2019-05-12T23:13:53.213Z,10.50
2019-05-12T23:16:26.075Z,10.50
2019-05-12T23:18:53.761Z,10.50
2019-05-12T23:21:24.272Z,10.50
2019-05-12T23:23:57.240Z,10.50
2019-05-12T23:26:25.514Z,10.50
2019-05-12T23:28:55.309Z,10.40
2019-05-12T23:31:30.037Z,10.40
2019-05-12T23:33:57.043Z,10.40
2019-05-12T23:36:35.804Z,10.40
2019-05-12T23:39:00.282Z,10.30
2019-05-12T23:41:28.558Z,10.20
2019-05-12T23:43:58.347Z,10.20
2019-05-12T23:46:28.151Z,10.20
2019-05-12T23:48:57.924Z,10.10
2019-05-12T23:51:27.674Z,10.10
2019-05-12T23:53:57.505Z,10.00
2019-05-12T23:56:27.226Z,10.00
2019-05-12T23:58:57.093Z,9.90
